Time;durP1;ratioP1;P1;durP2;ratioP2;P2;SDS_P1;SDS_P2;PMS_P1;PMS_P2;Temp;Humidity;BMP_temperature;BMP_pressure;BME280_temperature;BME280_humidity;BME280_pressure;Samples;Min_cycle;Max_cycle;Signal;HPM_P1;HPM_P2
2022/05/23 05:47:39;;;;;;;3.75;1.87;;;;;;;15.88;58.93;151643.25;1741346;81;21066;-63
2022/05/23 05:50:11;;;;;;;5.15;2.40;;;;;;;15.89;58.63;151645.91;1733655;81;21836;-63
2022/05/23 05:52:46;;;;;;;4.95;2.00;;;;;;;15.82;58.48;151627.63;1726421;82;21071;-64
2022/05/23 05:55:13;;;;;;;4.33;1.70;;;;;;;15.66;58.67;151587.22;1730045;82;21032;-65
2022/05/23 05:57:42;;;;;;;4.55;1.80;;;;;;;15.56;59.19;151562.47;1723950;82;21043;-66
2022/05/23 06:00:10;;;;;;;7.87;1.90;;;;;;;15.60;59.73;151572.94;1723113;81;21043;-63
2022/05/23 06:02:44;;;;;;;3.47;1.73;;;;;;;15.69;59.38;151596.34;1726276;81;21519;-63
2022/05/23 06:05:13;;;;;;;2.87;1.72;;;;;;;15.74;59.25;151609.36;1730486;82;21969;-64
2022/05/23 06:13:26;;;;;;;3.72;1.70;;;;;;;15.54;59.33;151558.59;1716915;81;21067;-64
2022/05/23 06:16:07;;;;;;;5.17;2.10;;;;;;;15.45;59.64;151536.45;1738327;81;22183;-61
2022/05/23 06:18:36;;;;;;;3.62;1.98;;;;;;;15.43;60.21;151531.25;1740467;81;21619;-64
2022/05/23 06:21:06;;;;;;;3.80;2.00;;;;;;;15.55;60.44;151559.88;1723009;81;21052;-64
2022/05/23 06:23:33;;;;;;;7.25;2.17;;;;;;;15.66;60.10;151588.55;1726890;81;21140;-64
2022/05/23 06:26:02;;;;;;;5.03;1.70;;;;;;;15.74;59.63;151609.36;1730460;81;21107;-63
2022/05/23 06:28:32;;;;;;;1.55;1.37;;;;;;;15.82;59.56;151627.63;1683400;83;21448;-65
2022/05/23 06:31:00;;;;;;;2.72;1.70;;;;;;;15.92;59.43;151652.44;1734352;81;21606;-64
2022/05/23 06:33:29;;;;;;;4.47;1.60;;;;;;;16.01;59.22;151677.13;1732042;81;21376;-64
2022/05/23 06:35:58;;;;;;;2.30;1.72;;;;;;;16.09;58.96;151695.41;1723631;82;21106;-66
2022/05/23 06:38:26;;;;;;;5.47;1.70;;;;;;;16.04;58.35;151685.00;1724731;82;21477;-64
2022/05/23 06:41:06;;;;;;;2.80;1.50;;;;;;;15.88;58.86;151644.58;1725700;83;21144;-65
2022/05/23 06:43:36;;;;;;;4.00;1.65;;;;;;;15.87;59.03;151641.92;1728019;81;21394;-64
2022/05/23 06:46:21;;;;;;;1.55;1.27;;;;;;;15.86;58.91;151638.05;1738113;81;21086;-66
2022/05/23 06:48:57;;;;;;;2.12;1.50;;;;;;;15.85;59.17;151635.44;1730898;82;21025;-64
2022/05/23 06:51:28;;;;;;;2.58;1.62;;;;;;;15.80;59.15;151622.38;1678987;83;21587;-65
2022/05/23 06:53:56;;;;;;;10.25;1.77;;;;;;;15.70;59.30;151598.95;1736330;81;21274;-64
2022/05/23 06:56:28;;;;;;;9.55;1.70;;;;;;;15.60;59.71;151572.94;1733474;81;21015;-66
2022/05/23 06:59:01;;;;;;;6.80;1.37;;;;;;;15.57;59.75;151566.41;1729595;81;20984;-65
2022/05/23 07:01:30;;;;;;;5.80;1.60;;;;;;;15.63;59.95;151580.73;1732397;81;21072;-65
2022/05/23 07:04:08;;;;;;;2.47;1.47;;;;;;;15.65;59.69;151585.94;1729612;81;21050;-64
2022/05/23 07:12:20;;;;;;;2.30;1.50;;;;;;;15.51;60.14;151549.47;1731991;81;21072;-65
2022/05/23 07:14:49;;;;;;;3.30;1.70;;;;;;;15.54;60.30;151557.27;1724260;81;22164;-64
2022/05/23 07:17:17;;;;;;;2.90;1.50;;;;;;;15.63;60.26;151580.73;1732200;80;20971;-65
2022/05/23 07:19:56;;;;;;;2.60;1.70;;;;;;;15.74;59.78;151609.36;1696743;81;21754;-65
2022/05/23 07:22:23;;;;;;;5.17;1.80;;;;;;;15.82;59.59;151627.63;1731586;82;20912;-65
2022/05/23 07:24:51;;;;;;;5.10;1.75;;;;;;;15.93;59.45;151656.31;1730639;81;21080;-65
2022/05/23 07:27:25;;;;;;;5.75;1.45;;;;;;;16.10;59.31;151698.02;1730380;82;21086;-65
2022/05/23 07:29:52;;;;;;;7.55;1.72;;;;;;;16.35;59.00;151761.81;1729080;82;20957;-66
2022/05/23 07:32:19;;;;;;;14.93;1.72;;;;;;;16.59;58.51;151823.08;1732856;81;21187;-66
2022/05/23 07:34:47;;;;;;;6.08;1.62;;;;;;;16.84;57.67;151884.34;1729172;81;21077;-67
2022/05/23 07:37:15;;;;;;;4.20;1.55;;;;;;;17.07;57.05;151941.75;1728760;81;21101;-66
2022/05/23 07:39:43;;;;;;;1.95;1.30;;;;;;;17.28;56.24;151995.17;1731246;81;21404;-66
2022/05/23 07:42:16;;;;;;;2.58;1.60;;;;;;;17.37;55.52;152018.67;1720533;82;20916;-67
2022/05/23 07:44:44;;;;;;;2.47;1.40;;;;;;;17.44;55.25;152036.91;1729736;81;21764;-65
2022/05/23 07:47:12;;;;;;;9.83;1.92;;;;;;;17.54;54.88;152061.69;1733442;81;20972;-66
2022/05/23 07:49:44;;;;;;;5.17;1.82;;;;;;;17.67;55.04;152092.95;1733622;81;20908;-65
2022/05/23 07:52:13;;;;;;;4.30;1.95;;;;;;;17.85;53.68;152138.64;1730373;81;20968;-67
2022/05/23 08:00:33;;;;;;;2.47;1.37;;;;;;;18.25;52.75;152240.44;1731313;81;21064;-66
2022/05/23 08:03:16;;;;;;;3.10;1.47;;;;;;;18.50;52.49;152303.06;1730694;81;21487;-67
2022/05/23 08:05:44;;;;;;;2.12;1.70;;;;;;;18.61;51.71;152331.73;1752131;81;21478;-65
2022/05/23 08:08:11;;;;;;;3.05;1.90;;;;;;;18.63;51.65;152334.34;1740399;81;20921;-67
2022/05/23 08:10:39;;;;;;;4.78;1.77;;;;;;;18.65;51.35;152339.56;1731578;81;21075;-66
2022/05/23 08:13:09;;;;;;;4.00;1.92;;;;;;;18.53;51.06;152310.88;1742195;80;20901;-68
2022/05/23 08:15:38;;;;;;;7.22;1.92;;;;;;;18.33;51.36;152261.28;1698511;83;21011;-68
2022/05/23 08:18:08;;;;;;;2.30;1.80;;;;;;;18.23;52.15;152235.17;1735955;81;21016;-66
2022/05/23 08:20:37;;;;;;;3.45;1.60;;;;;;;18.35;51.67;152263.91;1753583;80;20954;-68
2022/05/23 08:23:05;;;;;;;2.35;1.60;;;;;;;18.37;51.71;152269.11;1727073;82;21264;-66
2022/05/23 08:25:34;;;;;;;3.80;1.87;;;;;;;18.35;51.41;152263.91;1730499;81;20918;-68
2022/05/23 08:28:01;;;;;;;4.03;2.20;;;;;;;18.23;51.63;152235.17;1741013;81;20960;-66
2022/05/23 08:30:28;;;;;;;3.05;2.08;;;;;;;18.20;52.04;152226.08;1724318;81;21284;-68
2022/05/23 08:33:01;;;;;;;3.02;1.87;;;;;;;18.22;52.06;152232.56;1725892;81;21041;-67
2022/05/23 08:35:32;;;;;;;4.78;1.40;;;;;;;18.31;51.68;152256.08;1733498;81;21594;-67
2022/05/23 08:38:01;;;;;;;1.87;1.60;;;;;;;18.38;51.51;152271.72;1731982;81;21007;-66
2022/05/23 08:40:47;;;;;;;2.83;1.70;;;;;;;18.49;50.65;152300.44;1708287;83;21015;-65
2022/05/23 08:43:19;;;;;;;3.05;1.70;;;;;;;18.51;50.73;152305.66;1721787;83;21035;-67
2022/05/23 08:45:46;;;;;;;2.10;1.50;;;;;;;18.57;50.66;152320.03;1734272;81;20908;-65
2022/05/23 08:48:37;;;;;;;2.02;1.67;;;;;;;18.64;50.47;152336.95;1740131;81;21811;-67
2022/05/23 08:51:15;;;;;;;3.20;1.90;;;;;;;18.64;50.19;152336.95;1713396;82;20943;-65
2022/05/23 08:54:24;;;;;;;2.17;1.80;;;;;;;18.65;50.28;152340.89;1728653;82;20920;-67
2022/05/23 08:57:03;;;;;;;3.75;2.30;;;;;;;18.67;50.44;152344.77;1734726;81;21019;-66
2022/05/23 08:59:43;;;;;;;4.15;2.52;;;;;;;18.57;50.25;152321.31;1733995;81;21516;-68
2022/05/23 09:02:20;;;;;;;3.70;2.27;;;;;;;18.30;50.93;152253.47;1733492;81;21173;-64
2022/05/23 09:05:03;;;;;;;3.67;2.40;;;;;;;18.17;51.60;152220.86;1716400;81;21024;-68
2022/05/23 09:07:47;;;;;;;3.00;1.80;;;;;;;17.95;52.04;152163.42;1711311;81;21048;-66
2022/05/23 09:10:23;;;;;;;5.12;2.10;;;;;;;17.76;52.61;152117.73;1739293;81;20905;-67
2022/05/23 09:12:53;;;;;;;3.92;1.70;;;;;;;17.56;53.23;152065.56;1736206;81;21391;-65
2022/05/23 09:15:23;;;;;;;2.22;1.60;;;;;;;17.56;53.71;152065.56;1725785;81;21249;-66
2022/05/23 09:17:58;;;;;;;8.35;1.90;;;;;;;17.57;53.77;152068.19;1746505;81;21043;-65
2022/05/23 09:20:42;;;;;;;2.65;1.70;;;;;;;17.65;53.78;152089.06;1740037;81;20968;-67
2022/05/23 09:23:13;;;;;;;3.83;1.98;;;;;;;17.64;53.73;152086.47;1748298;81;21118;-65
2022/05/23 09:25:40;;;;;;;5.08;1.90;;;;;;;17.60;53.60;152077.31;1749605;81;20996;-67
2022/05/23 09:28:16;;;;;;;4.95;2.17;;;;;;;17.60;54.03;152076.05;1748758;81;21169;-67
2022/05/23 09:30:44;;;;;;;3.52;2.20;;;;;;;17.62;53.82;152081.25;1730711;81;21727;-68
2022/05/23 09:33:17;;;;;;;2.72;2.15;;;;;;;17.52;54.02;152056.47;1737246;81;21124;-67
2022/05/23 09:35:48;;;;;;;5.70;2.10;;;;;;;17.47;54.58;152043.45;1753481;81;20920;-66
2022/05/23 09:38:25;;;;;;;5.30;2.10;;;;;;;17.57;54.44;152068.19;1753687;81;20885;-66
2022/05/23 09:41:03;;;;;;;3.25;1.80;;;;;;;17.70;54.16;152100.81;1731785;81;21007;-65
2022/05/23 09:49:11;;;;;;;4.62;1.50;;;;;;;18.03;53.05;152185.66;1726675;82;22256;-68
2022/05/23 09:51:57;;;;;;;2.87;1.55;;;;;;;18.23;52.84;152233.89;1727567;81;20916;-64
2022/05/23 09:54:40;;;;;;;2.42;1.30;;;;;;;18.23;52.02;152235.17;1733533;81;22270;-68
2022/05/23 09:57:24;;;;;;;3.83;1.40;;;;;;;18.02;52.15;152181.72;1730338;81;20940;-64
2022/05/23 10:00:00;;;;;;;3.02;1.40;;;;;;;17.82;53.03;152132.09;1739658;81;20964;-67
2022/05/23 10:02:37;;;;;;;3.58;1.40;;;;;;;17.82;53.10;152130.81;1724466;81;20885;-65
2022/05/23 10:05:07;;;;;;;9.13;1.50;;;;;;;17.66;53.12;152090.34;1724982;81;20987;-66
2022/05/23 10:07:37;;;;;;;2.47;1.50;;;;;;;17.56;53.60;152065.56;1738360;81;21246;-65
2022/05/23 10:10:12;;;;;;;6.05;1.30;;;;;;;17.58;53.68;152070.83;1707425;81;21084;-66
2022/05/23 10:12:45;;;;;;;2.60;1.50;;;;;;;17.64;53.40;152086.47;1726299;82;21127;-64
2022/05/23 10:15:23;;;;;;;5.85;1.35;;;;;;;17.74;53.31;152111.25;1726161;82;21100;-68
2022/05/23 10:18:08;;;;;;;3.72;1.55;;;;;;;17.74;53.15;152111.25;1726314;83;21023;-65
2022/05/23 10:20:37;;;;;;;;;;;;;;;17.73;53.51;152109.92;1728627;83;21853;-66
2022/05/23 10:23:19;;;;;;;3.47;2.02;;;;;;;17.64;54.35;152086.47;1725262;83;20419;-66
2022/05/23 10:26:13;;;;;;;3.15;2.08;;;;;;;17.52;55.08;152056.47;1695615;82;21881;-67
2022/05/23 10:28:47;;;;;;;4.00;1.80;;;;;;;17.36;55.53;152016.06;1729835;82;21075;-64
2022/05/23 10:31:40;;;;;;;3.35;1.65;;;;;;;17.25;55.96;151987.36;1731642;82;26683;-66
2022/05/23 10:34:26;;;;;;;2.62;1.85;;;;;;;17.23;56.22;151983.44;1728800;81;21263;-65
2022/05/23 10:36:54;;;;;;;5.50;1.75;;;;;;;17.33;56.42;152008.20;1736029;81;21128;-67
2022/05/23 10:42:33;;;;;;;2.92;1.80;;;;;;;17.64;55.59;152086.47;1728667;81;21084;-66
2022/05/23 10:45:29;;;;;;;2.87;1.55;;;;;;;17.80;55.42;152126.89;1726285;81;21074;-66
2022/05/23 10:48:29;;;;;;;8.70;3.20;;;;;;;17.92;54.71;152156.88;1748980;80;21144;-66
2022/05/23 10:51:08;;;;;;;5.60;2.50;;;;;;;17.93;54.61;152159.48;1734255;81;21019;-65
2022/05/23 10:53:51;;;;;;;7.12;2.98;;;;;;;17.97;54.22;152169.91;1734538;81;20966;-67
2022/05/23 10:56:44;;;;;;;4.25;2.50;;;;;;;18.03;54.02;152185.66;1733196;81;21444;-66
2022/05/23 10:59:22;;;;;;;3.95;1.52;;;;;;;18.08;53.74;152197.36;1739407;81;21059;-67
2022/05/23 11:02:22;;;;;;;3.72;1.62;;;;;;;18.19;53.60;152224.75;1720950;81;21249;-66
2022/05/23 11:05:12;;;;;;;2.37;1.35;;;;;;;18.28;53.58;152248.25;1715299;82;21020;-66
2022/05/23 11:08:05;;;;;;;1.85;1.40;;;;;;;18.26;53.06;152241.72;1730342;81;21081;-65
2022/05/23 11:11:02;;;;;;;6.55;1.30;;;;;;;18.25;53.49;152239.11;1729173;81;21584;-64
2022/05/23 11:14:08;;;;;;;2.83;1.52;;;;;;;18.34;53.45;152262.56;1696194;82;21033;-67
2022/05/23 11:17:04;;;;;;;4.30;1.62;;;;;;;18.49;53.51;152300.44;1732104;81;21080;-66
2022/05/23 11:19:39;;;;;;;3.47;1.45;;;;;;;18.58;53.13;152323.91;1726572;81;21056;-66
2022/05/23 11:22:17;;;;;;;3.90;1.25;;;;;;;18.74;52.49;152363.08;1735573;81;21118;-66
2022/05/23 11:24:53;;;;;;;1.90;1.40;;;;;;;18.78;51.73;152373.50;1748242;81;21041;-67
2022/05/23 11:35:47;;;;;;;7.12;1.60;;;;;;;18.55;52.69;152316.09;1734434;81;21110;-66
2022/05/23 11:38:13;;;;;;;2.80;1.55;;;;;;;18.49;53.07;152300.44;1756364;81;21091;-65
2022/05/23 11:41:06;;;;;;;3.17;1.77;;;;;;;18.42;52.63;152283.47;1722464;81;21629;-67
2022/05/23 11:43:33;;;;;;;2.35;1.25;;;;;;;18.37;52.87;152269.11;1727648;82;22153;-65
2022/05/23 11:46:08;;;;;;;1.62;1.10;;;;;;;18.44;52.63;152287.36;1697780;82;21063;-66
2022/05/23 11:48:47;;;;;;;2.52;1.20;;;;;;;18.49;52.63;152300.44;1749596;81;20951;-64
2022/05/23 11:51:32;;;;;;;1.70;1.20;;;;;;;18.65;52.20;152339.56;1744362;81;20875;-66
2022/05/23 11:54:17;;;;;;;4.58;1.27;;;;;;;18.83;51.11;152386.55;1739519;81;21497;-66
2022/05/23 11:57:04;;;;;;;2.85;1.20;;;;;;;18.94;50.60;152412.67;1734319;81;21249;-65
2022/05/23 11:59:37;;;;;;;3.80;1.30;;;;;;;19.10;49.97;152454.45;1736559;81;21062;-66
2022/05/23 12:02:14;;;;;;;2.50;1.17;;;;;;;19.18;49.70;152475.38;1733423;80;21543;-65
2022/05/23 12:04:56;;;;;;;2.52;1.22;;;;;;;19.24;49.28;152488.41;1728890;81;21516;-67
2022/05/23 12:10:29;;;;;;;6.15;1.50;;;;;;;19.07;49.93;152446.63;1840005;77;23569;-66
2022/05/23 12:13:12;;;;;;;3.60;1.30;;;;;;;18.90;50.64;152404.84;1823588;78;21014;-65
2022/05/23 12:15:48;;;;;;;2.22;1.30;;;;;;;18.74;51.79;152363.08;1750929;80;21257;-67
2022/05/23 12:18:28;;;;;;;2.80;1.40;;;;;;;18.68;52.20;152348.70;1774374;80;20961;-65
2022/05/23 12:21:09;;;;;;;7.60;1.70;;;;;;;18.69;51.99;152350.03;1778392;80;21375;-67
2022/05/23 12:23:43;;;;;;;3.12;1.20;;;;;;;18.69;52.10;152350.03;1776132;79;20890;-66
2022/05/23 12:26:15;;;;;;;5.37;1.20;;;;;;;18.86;51.70;152393.09;1785427;79;20949;-66
2022/05/23 12:29:01;;;;;;;3.67;1.22;;;;;;;18.92;50.52;152407.45;1782606;79;21057;-67
2022/05/23 12:31:29;;;;;;;9.53;1.62;;;;;;;19.01;50.56;152432.31;1765737;79;20921;-65
2022/05/23 12:34:07;;;;;;;8.98;1.70;;;;;;;19.18;50.30;152475.38;1783722;79;20894;-66
2022/05/23 12:36:51;;;;;;;3.87;1.45;;;;;;;19.28;50.24;152498.84;1781931;80;21003;-65
2022/05/23 12:39:42;;;;;;;1.72;1.10;;;;;;;19.30;49.87;152505.39;1762783;80;21528;-66
2022/05/23 12:42:27;;;;;;;1.95;0.80;;;;;;;19.03;52.41;152437.53;1792029;79;21184;-68
2022/05/23 12:45:34;;;;;;;1.70;0.90;;;;;;;18.35;55.57;152263.91;1784786;79;21325;-67
2022/05/23 12:48:21;;;;;;;3.15;0.78;;;;;;;17.68;58.25;152096.89;1769069;79;20920;-67
2022/05/23 12:51:11;;;;;;;1.98;1.00;;;;;;;17.03;62.31;151932.61;1783297;79;20885;-67
2022/05/23 12:53:50;;;;;;;1.17;0.65;;;;;;;16.64;64.37;151833.50;1779976;79;21560;-68
2022/05/23 12:56:46;;;;;;;2.83;1.00;;;;;;;16.31;66.68;151752.72;1748013;82;21260;-67
2022/05/23 12:59:41;;;;;;;8.05;1.80;;;;;;;16.01;69.73;151677.13;1749310;81;20944;-68
2022/05/23 13:02:28;;;;;;;3.37;1.40;;;;;;;15.59;72.83;151571.61;1725743;81;21104;-69
2022/05/23 13:05:06;;;;;;;2.65;1.30;;;;;;;15.24;75.20;151481.77;1746055;80;20984;-67
2022/05/23 13:08:02;;;;;;;3.37;0.98;;;;;;;15.00;76.55;151421.88;1718184;80;21028;-66
2022/05/23 13:10:39;;;;;;;1.40;1.17;;;;;;;14.91;77.25;151399.75;1742610;81;21264;-67
2022/05/23 13:13:23;;;;;;;1.32;0.90;;;;;;;14.74;77.60;151358.09;1733947;82;21017;-66
2022/05/23 13:15:50;;;;;;;1.35;1.00;;;;;;;14.68;78.23;151341.11;1739273;81;21023;-67
2022/05/23 13:23:54;;;;;;;1.47;1.00;;;;;;;14.94;79.14;151406.28;1744769;81;21359;-67
2022/05/23 13:26:21;;;;;;;2.95;1.10;;;;;;;15.13;79.16;151455.70;1736531;81;20910;-68
2022/05/23 13:28:51;;;;;;;3.70;1.10;;;;;;;15.26;78.93;151488.30;1727723;82;21387;-66
2022/05/23 13:31:29;;;;;;;2.33;1.40;;;;;;;15.44;78.62;151532.53;1718873;83;20906;-67
2022/05/23 13:33:57;;;;;;;1.62;1.27;;;;;;;15.59;78.17;151570.33;1718034;83;20925;-67
2022/05/23 13:36:26;;;;;;;3.00;1.35;;;;;;;15.75;77.90;151611.97;1722606;82;21959;-66
2022/05/23 13:39:10;;;;;;;3.75;1.47;;;;;;;15.92;76.73;151653.70;1731294;82;20902;-68
2022/05/23 13:41:37;;;;;;;3.00;1.30;;;;;;;16.07;76.71;151690.19;1734729;82;20946;-67
2022/05/23 13:44:05;;;;;;;4.37;1.05;;;;;;;16.23;76.00;151731.84;1733598;81;21454;-68
2022/05/23 13:46:38;;;;;;;2.02;1.20;;;;;;;16.33;74.69;151756.61;1735043;81;21613;-68
2022/05/23 13:49:14;;;;;;;1.42;1.00;;;;;;;16.46;74.11;151790.50;1750485;81;21151;-68
2022/05/23 13:51:57;;;;;;;5.85;1.20;;;;;;;16.49;72.58;151797.03;1751760;81;20976;-68
2022/05/23 13:54:36;;;;;;;2.17;0.75;;;;;;;16.53;73.22;151806.13;1738376;81;20957;-67
2022/05/23 13:57:14;;;;;;;1.67;0.85;;;;;;;16.67;72.94;151841.31;1730689;82;20941;-66
2022/05/23 13:59:55;;;;;;;3.80;0.80;;;;;;;16.84;73.35;151885.62;1730407;82;21056;-67
2022/05/23 14:02:28;;;;;;;4.85;0.80;;;;;;;16.95;72.00;151911.72;1735621;81;21443;-69
2022/05/23 14:04:56;;;;;;;1.42;0.60;;;;;;;17.03;70.93;151932.61;1725601;81;20961;-61
2022/05/23 14:07:26;;;;;;;1.15;0.72;;;;;;;17.07;69.55;151943.03;1730307;82;20973;-61
2022/05/23 14:09:57;;;;;;;2.20;0.78;;;;;;;17.13;68.87;151957.38;1705431;82;20886;-66
2022/05/23 14:12:28;;;;;;;3.08;0.93;;;;;;;17.17;68.40;151969.13;1740653;81;21028;-66
2022/05/23 14:15:02;;;;;;;3.70;1.32;;;;;;;17.25;68.48;151987.36;1720842;82;21038;-60
2022/05/23 14:17:41;;;;;;;1.02;0.80;;;;;;;17.28;66.43;151995.17;1733557;81;21028;-61
2022/05/23 14:20:22;;;;;;;0.72;0.60;;;;;;;17.28;64.12;151996.50;1733379;81;20950;-61
2022/05/23 14:23:11;;;;;;;3.90;1.37;;;;;;;17.29;61.12;151997.78;1736224;82;20965;-60
2022/05/23 14:25:45;;;;;;;2.30;0.65;;;;;;;17.26;60.48;151989.97;1733423;81;20950;-65
2022/05/23 14:28:22;;;;;;;1.98;0.80;;;;;;;17.28;60.32;151995.17;1732171;81;21282;-66
2022/05/23 14:30:51;;;;;;;2.22;0.45;;;;;;;17.32;60.58;152006.92;1739206;81;20874;-66
2022/05/23 14:33:40;;;;;;;1.32;0.60;;;;;;;17.35;60.02;152013.41;1733160;82;20940;-65
2022/05/23 14:36:27;;;;;;;0.75;0.47;;;;;;;17.39;59.50;152023.89;1729205;81;21051;-66
2022/05/23 14:38:58;;;;;;;0.53;0.40;;;;;;;17.39;59.94;152022.56;1716191;81;20942;-65
2022/05/23 14:41:29;;;;;;;0.40;0.40;;;;;;;17.40;59.95;152026.48;1730634;82;21988;-66
2022/05/23 14:44:19;;;;;;;1.42;0.60;;;;;;;17.37;60.11;152018.67;1734366;81;20914;-65
2022/05/23 14:47:19;;;;;;;0.68;0.68;;;;;;;17.30;60.56;152000.39;1738668;81;20940;-66
2022/05/23 14:50:13;;;;;;;1.32;0.75;;;;;;;17.22;61.83;151979.55;1731214;81;20945;-64
2022/05/23 14:55:17;;;;;;;0.80;0.60;;;;;;;17.14;63.08;151961.31;1708707;81;21289;-65
2022/05/23 14:55:22;;;;;;;2.30;0.98;;;;;;;16.94;64.38;151909.13;1730255;81;21270;-64
2022/05/23 15:00:48;;;;;;;0.88;0.80;;;;;;;16.64;67.03;151833.50;1778520;79;20940;-66
2022/05/23 15:03:25;;;;;;;0.80;0.80;;;;;;;16.52;67.40;151804.84;1799029;77;20975;-67
2022/05/23 15:05:55;;;;;;;0.60;0.60;;;;;;;16.45;67.99;151786.56;1780584;79;20887;-64
2022/05/23 15:08:23;;;;;;;0.40;0.40;;;;;;;16.49;66.72;151797.03;1787279;79;21480;-65
2022/05/23 15:10:52;;;;;;;2.30;0.93;;;;;;;16.48;65.76;151794.44;1787136;79;20909;-64
2022/05/23 15:13:21;;;;;;;1.00;0.90;;;;;;;16.46;66.19;151789.19;1794801;79;20850;-60
2022/05/23 15:15:49;;;;;;;1.20;1.10;;;;;;;16.41;66.89;151776.16;1786638;79;21461;-60
2022/05/23 15:18:17;;;;;;;1.20;1.10;;;;;;;16.36;67.54;151763.14;1785678;80;21076;-61
2022/05/23 15:20:44;;;;;;;1.25;1.15;;;;;;;16.36;68.02;151764.47;1786159;79;21390;-60
2022/05/23 15:23:15;;;;;;;1.87;1.42;;;;;;;16.31;68.49;151751.41;1786982;79;20949;-60
2022/05/23 15:25:42;;;;;;;6.28;1.42;;;;;;;16.26;68.92;151739.70;1786972;79;20997;-60
2022/05/23 15:28:10;;;;;;;1.92;1.40;;;;;;;16.21;69.61;151726.64;1786691;80;21092;-60
2022/05/23 15:30:37;;;;;;;3.80;1.45;;;;;;;16.17;69.76;151716.22;1786896;79;21017;-60
2022/05/23 15:33:04;;;;;;;3.92;1.60;;;;;;;16.10;69.94;151698.02;1786213;79;21190;-61
2022/05/23 15:35:31;;;;;;;1.52;1.42;;;;;;;16.09;70.23;151695.41;1786833;80;20898;-60
2022/05/23 15:38:00;;;;;;;3.67;1.32;;;;;;;16.06;70.65;151688.88;1787161;79;20986;-61
2022/05/23 15:40:28;;;;;;;1.45;1.20;;;;;;;16.07;70.73;151690.19;1786890;80;20962;-60
2022/05/23 15:42:55;;;;;;;2.30;1.20;;;;;;;16.08;70.78;151692.81;1786711;80;21008;-60
2022/05/23 15:45:28;;;;;;;2.67;1.00;;;;;;;16.10;70.34;151698.02;1786926;78;21560;-61
2022/05/23 15:47:56;;;;;;;1.20;1.10;;;;;;;16.11;69.41;151700.61;1786884;80;21041;-60
2022/05/23 15:50:24;;;;;;;0.90;0.90;;;;;;;16.10;68.82;151699.28;1787096;79;21029;-61
2022/05/23 15:52:51;;;;;;;1.42;1.30;;;;;;;16.12;68.65;151703.22;1786797;80;21072;-62
2022/05/23 15:55:20;;;;;;;1.15;1.05;;;;;;;16.13;68.26;151707.09;1787213;79;21045;-62
2022/05/23 15:57:52;;;;;;;3.20;1.60;;;;;;;16.13;68.12;151707.09;1787033;78;21174;-61
2022/05/23 16:00:22;;;;;;;2.10;1.42;;;;;;;16.15;68.26;151711.03;1786767;78;20961;-61
2022/05/23 16:02:55;;;;;;;1.35;1.25;;;;;;;16.21;68.11;151726.64;1787111;79;21449;-61
2022/05/23 16:05:23;;;;;;;1.70;1.27;;;;;;;16.21;67.39;151726.64;1787127;79;21458;-62
2022/05/23 16:07:51;;;;;;;2.05;1.30;;;;;;;16.19;67.66;151721.44;1787355;79;21047;-61
2022/05/23 16:10:18;;;;;;;1.80;1.10;;;;;;;16.17;67.62;151716.22;1787924;79;22148;-60
2022/05/23 16:12:59;;;;;;;0.80;0.80;;;;;;;16.14;68.00;151708.42;1789274;79;21020;-60
2022/05/23 16:15:27;;;;;;;2.05;0.80;;;;;;;16.11;67.08;151700.61;1789561;79;20959;-60
2022/05/23 16:17:54;;;;;;;0.70;0.70;;;;;;;16.04;66.89;151685.00;1789587;79;21004;-60
2022/05/23 16:20:21;;;;;;;0.90;0.90;;;;;;;16.00;66.98;151673.25;1789560;80;21005;-59
2022/05/23 16:22:48;;;;;;;1.35;0.90;;;;;;;15.97;67.59;151666.72;1789431;80;21324;-60
2022/05/23 16:25:16;;;;;;;1.77;1.20;;;;;;;15.99;68.03;151671.92;1789606;79;20977;-60
2022/05/23 16:27:44;;;;;;;1.42;1.10;;;;;;;15.98;68.41;151669.33;1789474;78;20976;-62
2022/05/23 16:30:14;;;;;;;1.22;0.90;;;;;;;15.98;68.59;151668.05;1789179;80;22095;-61
2022/05/23 16:38:11;;;;;;;;;;;;;;;15.93;69.51;151656.31;1792278;79;21013;-61
2022/05/23 16:40:39;;;;;;;1.22;1.10;;;;;;;15.90;69.66;151648.50;1789208;78;20193;-60
2022/05/23 16:43:06;;;;;;;2.55;1.00;;;;;;;15.90;69.76;151648.50;1789368;80;20973;-61
2022/05/23 16:45:34;;;;;;;2.40;1.10;;;;;;;15.90;69.70;151648.50;1789530;80;21032;-60
2022/05/23 16:48:01;;;;;;;0.82;0.82;;;;;;;15.87;69.83;151640.64;1789781;80;21096;-61
2022/05/23 16:50:28;;;;;;;2.85;0.90;;;;;;;15.87;70.27;151640.64;1789292;80;21006;-60
2022/05/23 16:52:56;;;;;;;2.60;1.20;;;;;;;15.90;70.52;151648.50;1789167;79;21059;-61
2022/05/23 16:55:23;;;;;;;1.30;1.10;;;;;;;15.92;70.79;151652.44;1789551;79;21449;-61
2022/05/23 16:57:51;;;;;;;1.50;0.93;;;;;;;15.96;71.03;151664.13;1789463;80;20984;-60
2022/05/23 17:00:19;;;;;;;1.10;0.80;;;;;;;15.94;70.85;151658.91;1789670;79;21953;-60
2022/05/23 17:02:46;;;;;;;1.10;1.00;;;;;;;15.89;70.96;151645.91;1789113;79;20985;-61
2022/05/23 17:05:13;;;;;;;1.17;0.70;;;;;;;15.83;71.47;151631.52;1789573;79;21044;-60
2022/05/23 17:07:40;;;;;;;1.10;0.88;;;;;;;15.78;71.82;151618.50;1789664;80;21331;-60
2022/05/23 17:10:09;;;;;;;0.90;0.70;;;;;;;15.74;72.40;151609.36;1785677;79;21446;-61
2022/05/23 17:12:39;;;;;;;0.90;0.70;;;;;;;15.72;72.79;151602.87;1772464;81;21506;-60
2022/05/23 17:15:09;;;;;;;1.10;0.80;;;;;;;15.65;73.27;151585.94;1772921;79;21068;-62
2022/05/23 17:17:37;;;;;;;1.22;0.90;;;;;;;15.64;73.82;151583.34;1773202;81;21025;-60
2022/05/23 17:20:07;;;;;;;1.07;0.72;;;;;;;15.59;74.23;151570.33;1773028;81;21418;-60
2022/05/23 17:22:34;;;;;;;1.22;0.90;;;;;;;15.54;74.76;151558.59;1772826;79;21010;-61
2022/05/23 17:25:01;;;;;;;1.32;1.00;;;;;;;15.52;75.12;151552.06;1772898;81;21220;-61
2022/05/23 17:27:28;;;;;;;2.15;0.90;;;;;;;15.49;75.55;151544.25;1772978;81;21010;-61
2022/05/23 17:29:55;;;;;;;1.12;0.82;;;;;;;15.49;75.77;151544.25;1773087;79;20968;-61
2022/05/23 17:32:22;;;;;;;1.80;0.98;;;;;;;15.49;76.04;151544.25;1772599;81;21037;-61
2022/05/23 17:34:52;;;;;;;1.37;0.90;;;;;;;15.47;76.24;151540.33;1773054;81;20997;-60
2022/05/23 17:37:19;;;;;;;1.67;1.05;;;;;;;15.43;76.55;151531.25;1773107;81;21905;-65
2022/05/23 17:39:48;;;;;;;0.90;0.80;;;;;;;15.40;76.81;151522.11;1772917;81;20998;-66
2022/05/23 17:42:15;;;;;;;3.05;0.95;;;;;;;15.34;77.05;151507.78;1772620;79;21045;-64
2022/05/23 17:44:42;;;;;;;0.82;0.75;;;;;;;15.31;77.51;151499.97;1772611;81;21041;-65
2022/05/23 17:47:09;;;;;;;1.05;0.80;;;;;;;15.26;77.70;151488.30;1772726;81;21100;-64
2022/05/23 17:49:37;;;;;;;1.80;0.98;;;;;;;15.20;78.19;151471.36;1772654;80;21854;-66
2022/05/23 17:52:05;;;;;;;2.05;1.10;;;;;;;15.13;78.45;151455.70;1772312;81;20994;-62
2022/05/23 17:54:32;;;;;;;1.62;1.00;;;;;;;15.07;78.80;151440.09;1772627;79;21071;-66
2022/05/23 17:56:59;;;;;;;1.70;0.93;;;;;;;15.02;78.96;151427.09;1759719;81;21056;-66
2022/05/23 17:59:26;;;;;;;1.77;1.00;;;;;;;14.96;79.30;151411.48;1772867;81;20874;-62
2022/05/23 18:01:53;;;;;;;1.22;0.80;;;;;;;14.90;79.54;151398.42;1772887;81;21846;-60
2022/05/23 18:04:21;;;;;;;0.80;0.80;;;;;;;14.85;79.91;151385.42;1772553;79;21061;-60
2022/05/23 18:06:48;;;;;;;0.98;0.60;;;;;;;14.77;80.13;151364.61;1772872;79;21435;-61
2022/05/23 18:09:15;;;;;;;1.20;0.80;;;;;;;14.71;80.46;151349.00;1770594;81;21059;-61
2022/05/23 18:11:43;;;;;;;1.80;1.00;;;;;;;14.66;80.73;151335.91;1772078;79;21001;-60
2022/05/23 18:19:42;;;;;;;2.42;1.40;;;;;;;14.59;81.22;151319.03;1773075;81;21049;-61
2022/05/23 18:22:09;;;;;;;2.92;1.12;;;;;;;14.57;81.37;151315.09;1773009;81;21056;-61
2022/05/23 18:24:36;;;;;;;1.98;1.22;;;;;;;14.54;81.26;151307.30;1772872;81;21029;-61
2022/05/23 18:27:04;;;;;;;1.92;1.00;;;;;;;14.47;81.39;151290.38;1772908;79;21461;-61
2022/05/23 18:29:32;;;;;;;2.85;1.25;;;;;;;14.42;81.51;151276.05;1772595;81;21073;-61
2022/05/23 18:32:02;;;;;;;2.30;1.05;;;;;;;14.39;81.56;151269.58;1772627;81;21022;-61
2022/05/23 18:34:31;;;;;;;3.45;1.10;;;;;;;14.36;81.59;151260.45;1772351;81;21466;-64
2022/05/23 18:36:58;;;;;;;0.70;0.70;;;;;;;14.33;81.65;151253.92;1773023;81;21029;-65
2022/05/23 18:39:25;;;;;;;5.75;1.05;;;;;;;14.30;81.57;151247.45;1773025;81;21258;-64
2022/05/23 18:41:53;;;;;;;1.90;1.35;;;;;;;14.30;81.55;151247.45;1772827;81;21065;-65